Time;durP1;ratioP1;P1;durP2;ratioP2;P2;SDS_P1;SDS_P2;PMS_P1;PMS_P2;Temp;Humidity;BMP_temperature;BMP_pressure;BME280_temperature;BME280_humidity;BME280_pressure;Samples;Min_cycle;Max_cycle;Signal;HPM_P1;HPM_P2
2021/08/22 00:00:25;;;;;;;7.18;4.15;;;;;;;19.10;81.65;98118.91;5092419;28;20503;-79
2021/08/22 00:02:51;;;;;;;6.45;4.18;;;;;;;19.10;81.53;98118.09;5092947;28;20036;-78
2021/08/22 00:05:17;;;;;;;6.35;4.72;;;;;;;19.02;82.06;98116.25;5074469;28;20539;-77
2021/08/22 00:07:42;;;;;;;4.70;4.13;;;;;;;19.10;81.75;98121.69;5074295;28;20027;-78
2021/08/22 00:10:08;;;;;;;5.25;4.40;;;;;;;18.94;82.04;98111.63;5073792;28;20023;-77
2021/08/22 00:12:33;;;;;;;7.07;4.80;;;;;;;18.89;82.36;98115.44;5092172;28;20028;-79
2021/08/22 00:14:59;;;;;;;8.32;4.30;;;;;;;19.07;81.54;98116.84;5092198;28;20154;-78
2021/08/22 00:17:24;;;;;;;7.57;4.53;;;;;;;19.11;81.15;98119.69;5091777;28;20032;-78
2021/08/22 00:19:50;;;;;;;6.07;3.25;;;;;;;19.27;80.29;98124.22;5091849;28;20031;-78
2021/08/22 00:22:15;;;;;;;6.30;3.72;;;;;;;19.14;80.58;98119.81;5092220;28;20028;-79
2021/08/22 00:24:41;;;;;;;6.00;4.53;;;;;;;19.15;80.48;98126.19;5092133;28;20020;-79
2021/08/22 00:27:07;;;;;;;6.40;3.95;;;;;;;19.18;79.85;98133.81;5051763;28;20075;-79
2021/08/22 00:29:32;;;;;;;5.68;4.03;;;;;;;19.22;79.18;98121.69;5051529;28;20512;-77
2021/08/22 00:31:57;;;;;;;4.25;3.72;;;;;;;19.12;79.74;98127.69;5051857;28;20033;-77
2021/08/22 00:34:23;;;;;;;5.82;3.72;;;;;;;19.13;79.64;98126.53;5050856;28;20032;-78
2021/08/22 00:36:48;;;;;;;4.68;3.78;;;;;;;19.13;79.51;98129.31;5050433;28;20504;-81
2021/08/22 00:39:14;;;;;;;7.50;4.38;;;;;;;19.22;79.09;98132.78;5051956;28;20040;-82
2021/08/22 00:41:40;;;;;;;6.28;4.03;;;;;;;19.25;78.56;98123.75;5051910;28;20048;-80
2021/08/22 00:44:06;;;;;;;8.43;4.40;;;;;;;19.27;78.97;98124.22;5051746;28;20024;-79
2021/08/22 00:46:32;;;;;;;5.47;4.00;;;;;;;19.02;80.14;98125.38;5051877;28;20036;-82
2021/08/22 00:48:58;;;;;;;9.13;4.35;;;;;;;18.91;80.90;98121.44;5033840;28;20052;-80
2021/08/22 00:51:23;;;;;;;6.45;4.03;;;;;;;18.91;81.38;98131.72;5051480;28;20120;-79
2021/08/22 00:53:49;;;;;;;6.00;4.43;;;;;;;19.06;80.96;98129.06;5051333;28;20032;-80
2021/08/22 00:56:16;;;;;;;5.60;5.00;;;;;;;19.00;80.95;98136.00;5051719;28;20086;-83
2021/08/22 00:58:45;;;;;;;8.07;4.32;;;;;;;18.91;81.87;98135.31;5051057;28;20108;-79
2021/08/22 01:01:24;;;;;;;5.97;3.90;;;;;;;18.82;82.39;98139.34;5051555;28;20033;-79
2021/08/22 01:04:23;;;;;;;6.63;3.78;;;;;;;18.87;82.15;98130.78;5051886;28;20032;-80
2021/08/22 01:06:55;;;;;;;5.45;3.97;;;;;;;18.69;83.60;98135.75;5051726;28;20029;-82
2021/08/22 01:09:29;;;;;;;7.10;4.63;;;;;;;18.48;85.64;98133.00;5054910;28;20055;-83
2021/08/22 01:12:00;;;;;;;8.00;4.93;;;;;;;18.55;86.16;98138.00;5043131;28;20061;-80
2021/08/22 01:14:31;;;;;;;5.88;4.53;;;;;;;18.59;85.82;98131.44;5033624;28;20040;-80
2021/08/22 01:16:58;;;;;;;7.18;4.72;;;;;;;18.64;85.81;98135.94;5051260;28;20074;-79
2021/08/22 01:20:04;;;;;;;7.50;4.90;;;;;;;18.74;84.92;98121.66;5033115;28;20035;-81
2021/08/22 01:22:31;;;;;;;6.95;4.50;;;;;;;18.69;85.08;98130.19;5050929;28;20028;-79
2021/08/22 01:24:57;;;;;;;8.70;5.28;;;;;;;18.66;84.92;98128.13;5050857;28;20055;-78
2021/08/22 01:27:24;;;;;;;7.90;5.10;;;;;;;18.67;84.70;98132.47;5050684;28;20033;-80
2021/08/22 01:30:03;;;;;;;10.18;4.78;;;;;;;18.64;85.56;98124.84;5032704;28;20433;-81
2021/08/22 01:32:39;;;;;;;9.32;5.38;;;;;;;18.31;87.52;98121.28;5050387;28;20037;-78
2021/08/22 01:35:07;;;;;;;8.27;5.00;;;;;;;18.21;88.58;98130.84;5051145;28;20028;-80
2021/08/22 01:37:37;;;;;;;10.93;5.15;;;;;;;18.43;87.86;98119.38;5051145;28;20118;-78
2021/08/22 01:40:05;;;;;;;7.25;4.72;;;;;;;18.45;86.86;98113.50;5050529;28;20021;-76
2021/08/22 01:42:33;;;;;;;8.85;4.97;;;;;;;18.26;88.69;98125.09;5050584;28;20029;-78
2021/08/22 01:45:01;;;;;;;8.10;4.88;;;;;;;18.27;88.84;98117.59;5050887;28;20028;-79
2021/08/22 01:47:26;;;;;;;9.88;5.13;;;;;;;18.27;88.85;98117.59;5050206;28;20048;-77
2021/08/22 01:49:54;;;;;;;12.38;5.95;;;;;;;18.11;89.44;98107.16;5049087;28;20486;-76
2021/08/22 01:52:20;;;;;;;6.93;4.53;;;;;;;18.11;89.98;98109.91;5050530;28;20029;-76
2021/08/22 01:54:45;;;;;;;8.27;5.50;;;;;;;18.38;88.46;98111.28;5049108;28;20803;-76
2021/08/22 01:57:11;;;;;;;8.23;5.03;;;;;;;18.52;87.63;98113.75;5050438;28;20029;-78
2021/08/22 01:59:36;;;;;;;9.77;4.95;;;;;;;18.42;87.85;98116.97;5050663;28;20035;-79
2021/08/22 02:02:03;;;;;;;7.85;4.93;;;;;;;18.41;88.19;98130.00;5050446;28;20025;-78
2021/08/22 02:04:34;;;;;;;8.75;4.15;;;;;;;18.29;88.05;98129.16;5034440;28;20098;-79
2021/08/22 02:07:08;;;;;;;5.90;4.22;;;;;;;18.03;88.58;98132.97;5054555;28;20041;-79
2021/08/22 02:09:39;;;;;;;6.88;4.38;;;;;;;17.90;89.26;98138.78;5054403;28;20029;-80
2021/08/22 02:12:10;;;;;;;8.13;4.32;;;;;;;17.93;88.79;98144.44;5054396;28;20504;-78
2021/08/22 02:14:39;;;;;;;9.00;4.43;;;;;;;17.84;89.05;98129.06;5054442;28;20036;-76
2021/08/22 02:17:05;;;;;;;5.97;4.28;;;;;;;17.74;89.25;98127.50;5052800;28;20057;-79
2021/08/22 02:19:31;;;;;;;6.93;5.05;;;;;;;17.74;89.52;98127.50;5053915;28;20088;-79
2021/08/22 02:21:58;;;;;;;5.53;3.88;;;;;;;17.65;89.74;98126.78;5053941;28;20036;-79
2021/08/22 02:24:24;;;;;;;6.82;4.85;;;;;;;17.92;88.01;98122.63;5054103;28;20039;-79
2021/08/22 02:26:50;;;;;;;9.60;4.40;;;;;;;17.87;88.11;98123.66;5054046;28;20431;-79
2021/08/22 02:29:15;;;;;;;8.60;4.30;;;;;;;17.78;88.57;98122.94;5053906;28;20033;-79
2021/08/22 02:31:41;;;;;;;9.32;4.90;;;;;;;17.73;88.82;98120.34;5052814;28;20390;-77
2021/08/22 02:34:06;;;;;;;10.52;4.40;;;;;;;17.65;89.69;98118.47;5035996;28;20021;-81
2021/08/22 02:36:31;;;;;;;9.65;5.35;;;;;;;17.59;90.20;98115.09;5053717;28;20120;-79
2021/08/22 02:38:57;;;;;;;7.75;4.60;;;;;;;17.58;90.27;98113.47;5058620;28;20039;-80
2021/08/22 02:41:23;;;;;;;6.60;4.18;;;;;;;17.60;89.79;98115.91;5054013;28;20492;-79
2021/08/22 02:43:48;;;;;;;7.65;4.13;;;;;;;17.67;89.43;98105.09;5053717;28;20025;-78
2021/08/22 02:46:14;;;;;;;7.60;5.15;;;;;;;17.71;89.41;98108.00;5053607;28;20021;-78
2021/08/22 02:48:40;;;;;;;6.53;4.40;;;;;;;17.76;88.93;98113.34;5053487;28;20045;-79
2021/08/22 02:51:05;;;;;;;6.00;4.75;;;;;;;17.83;88.43;98114.41;5051917;28;20116;-78
2021/08/22 02:53:32;;;;;;;13.48;4.95;;;;;;;17.64;89.49;98101.06;5053544;28;20040;-79
2021/08/22 02:55:58;;;;;;;6.75;4.63;;;;;;;17.51;90.45;98104.06;5052067;28;20036;-78
2021/08/22 02:58:24;;;;;;;5.90;4.10;;;;;;;17.63;90.00;98109.72;5053688;28;20021;-78
2021/08/22 03:00:50;;;;;;;6.38;4.47;;;;;;;17.70;89.37;98109.94;5053348;28;20075;-78
2021/08/22 03:03:15;;;;;;;6.00;4.15;;;;;;;17.79;88.92;98110.72;5053792;28;20029;-76
2021/08/22 03:05:41;;;;;;;7.47;5.05;;;;;;;17.87;88.76;98107.06;5053425;28;20393;-80
2021/08/22 03:08:07;;;;;;;6.57;5.50;;;;;;;17.83;88.53;98103.34;5053147;28;20389;-78
2021/08/22 03:10:32;;;;;;;6.13;4.47;;;;;;;17.65;89.27;98096.34;5035293;28;21077;-79
2021/08/22 03:12:58;;;;;;;6.05;4.45;;;;;;;17.34;90.96;98091.16;5053092;28;20112;-78
2021/08/22 03:15:23;;;;;;;8.93;5.32;;;;;;;17.26;92.63;98088.47;5050960;28;20120;-78
2021/08/22 03:17:48;;;;;;;7.45;5.00;;;;;;;17.25;93.03;98082.13;5053082;28;20017;-79
2021/08/22 03:20:14;;;;;;;9.90;5.53;;;;;;;17.31;93.01;98075.25;5053077;28;20033;-77
2021/08/22 03:22:41;;;;;;;6.78;4.90;;;;;;;17.42;92.35;98083.94;5053148;28;20083;-78
2021/08/22 03:25:07;;;;;;;10.98;5.28;;;;;;;17.21;93.18;98080.34;5054013;28;20036;-78
2021/08/22 03:27:34;;;;;;;8.43;5.13;;;;;;;17.24;93.31;98086.03;5060811;28;20029;-78
2021/08/22 03:30:00;;;;;;;8.20;4.47;;;;;;;17.07;93.47;98089.69;5057085;28;20033;-76
2021/08/22 03:32:27;;;;;;;7.07;4.85;;;;;;;16.95;93.74;98086.03;5067082;28;20055;-76
2021/08/22 03:34:52;;;;;;;10.48;4.93;;;;;;;17.03;93.66;98086.00;5072305;28;20521;-76
2021/08/22 03:37:18;;;;;;;9.77;5.20;;;;;;;16.96;93.09;98085.72;5054337;28;20089;-77
2021/08/22 03:39:43;;;;;;;8.00;5.80;;;;;;;16.85;94.02;98080.91;5072059;28;20039;-78
2021/08/22 03:42:08;;;;;;;7.07;4.95;;;;;;;17.10;92.19;98083.50;5072198;28;20027;-78
2021/08/22 03:44:34;;;;;;;9.73;5.32;;;;;;;17.10;92.26;98086.25;5071887;28;20484;-79
2021/08/22 03:46:59;;;;;;;8.43;5.25;;;;;;;17.03;92.72;98079.66;5072179;28;20031;-77
2021/08/22 03:49:25;;;;;;;8.48;4.90;;;;;;;17.09;92.42;98081.09;5071969;28;20044;-79
2021/08/22 03:51:50;;;;;;;11.25;7.07;;;;;;;16.99;93.15;98087.81;5072081;28;20551;-79
2021/08/22 03:54:16;;;;;;;6.03;4.22;;;;;;;16.88;93.88;98085.78;5072024;28;20032;-76
2021/08/22 03:56:42;;;;;;;9.18;5.35;;;;;;;17.06;93.24;98085.34;5072125;28;20029;-79
2021/08/22 03:59:08;;;;;;;14.38;5.30;;;;;;;17.06;93.47;98101.09;5072138;28;20104;-78
2021/08/22 04:01:34;;;;;;;13.30;5.20;;;;;;;16.90;94.23;98097.28;5071801;28;20123;-77
2021/08/22 04:04:01;;;;;;;7.80;4.38;;;;;;;16.95;93.75;98097.91;5072355;28;20032;-76
2021/08/22 04:06:27;;;;;;;9.18;5.15;;;;;;;16.88;93.75;98097.63;5072375;28;20058;-77
2021/08/22 04:08:52;;;;;;;6.75;4.40;;;;;;;16.98;93.73;98093.66;5071907;28;20048;-77
2021/08/22 04:11:18;;;;;;;7.03;5.00;;;;;;;16.88;94.39;98100.41;5071879;28;20063;-77
2021/08/22 04:13:44;;;;;;;6.68;4.47;;;;;;;17.10;92.73;98102.84;5053530;28;20024;-79
2021/08/22 04:16:09;;;;;;;6.40;4.10;;;;;;;16.80;94.63;98115.06;5071947;28;20095;-82
2021/08/22 04:18:34;;;;;;;11.38;4.65;;;;;;;16.82;94.60;98106.44;5071310;28;20524;-77
2021/08/22 04:21:01;;;;;;;5.57;4.18;;;;;;;16.89;94.46;98115.81;5071626;28;20020;-77
2021/08/22 04:23:26;;;;;;;8.07;4.70;;;;;;;16.90;94.25;98114.69;5071610;28;20028;-77
2021/08/22 04:25:53;;;;;;;9.82;4.60;;;;;;;16.79;95.01;98115.41;5071597;28;20024;-76
2021/08/22 04:28:19;;;;;;;11.90;5.00;;;;;;;16.90;94.41;98119.41;5070466;28;20567;-76
2021/08/22 04:30:45;;;;;;;6.97;4.28;;;;;;;16.93;93.98;98118.72;5071534;28;20051;-78
2021/08/22 04:33:10;;;;;;;7.43;4.68;;;;;;;16.88;94.20;98113.41;5071290;28;20034;-76
2021/08/22 04:35:36;;;;;;;5.35;3.90;;;;;;;16.95;93.84;98120.00;5071009;28;20435;-78
2021/08/22 04:38:01;;;;;;;6.70;4.80;;;;;;;16.89;94.22;98126.06;5071138;28;20028;-79
2021/08/22 04:40:28;;;;;;;6.10;4.68;;;;;;;16.84;94.83;98132.59;5071235;28;20025;-78
2021/08/22 04:42:55;;;;;;;8.52;4.80;;;;;;;16.88;94.48;98130.78;5071437;28;20021;-76
2021/08/22 04:45:21;;;;;;;7.50;5.22;;;;;;;16.91;94.75;98124.59;5071245;28;20447;-78
2021/08/22 04:47:46;;;;;;;9.05;4.45;;;;;;;17.18;93.30;98125.25;5070835;28;20048;-77
2021/08/22 04:50:12;;;;;;;5.65;4.25;;;;;;;17.20;92.75;98120.22;5071161;28;20079;-78
2021/08/22 04:52:37;;;;;;;11.90;4.95;;;;;;;17.17;93.01;98120.88;5071065;28;20025;-79
2021/08/22 04:55:05;;;;;;;11.52;5.13;;;;;;;17.48;91.33;98124.91;5071016;28;20028;-76
2021/08/22 04:57:30;;;;;;;5.88;4.43;;;;;;;17.59;90.28;98125.34;5071230;28;20027;-77
2021/08/22 04:59:56;;;;;;;6.40;4.53;;;;;;;17.68;89.96;98128.84;5052917;28;20025;-77
2021/08/22 05:02:21;;;;;;;10.77;5.00;;;;;;;17.78;89.44;98133.19;5070516;28;20082;-77
2021/08/22 05:04:46;;;;;;;11.02;4.80;;;;;;;17.81;89.17;98135.28;5071553;28;20878;-77
2021/08/22 05:07:12;;;;;;;6.25;4.50;;;;;;;17.79;89.19;98138.41;5070331;28;20025;-76
2021/08/22 05:09:37;;;;;;;7.10;4.93;;;;;;;17.81;89.21;98133.31;5070803;28;20782;-76
2021/08/22 05:12:03;;;;;;;10.32;4.65;;;;;;;17.72;89.39;98138.13;5070592;28;20028;-78
2021/08/22 05:14:33;;;;;;;5.22;4.63;;;;;;;17.79;89.35;98135.63;5070802;28;20544;-77
2021/08/22 05:16:58;;;;;;;7.32;3.55;;;;;;;18.13;87.59;98129.78;5070475;28;20025;-76
2021/08/22 05:19:26;;;;;;;6.38;4.65;;;;;;;17.94;88.03;98129.47;5052702;28;20031;-77
2021/08/22 05:21:51;;;;;;;9.20;4.95;;;;;;;17.89;88.57;98120.53;5070554;28;20824;-76
2021/08/22 05:24:16;;;;;;;8.57;4.68;;;;;;;17.82;89.25;98121.13;5070473;28;20051;-76
2021/08/22 05:26:42;;;;;;;8.23;5.20;;;;;;;17.79;89.65;98124.56;5052547;28;20385;-76
2021/08/22 05:29:07;;;;;;;9.93;5.45;;;;;;;17.69;89.78;98115.84;5070694;28;20025;-76
2021/08/22 05:31:33;;;;;;;7.22;5.28;;;;;;;17.71;90.24;98117.13;5052051;28;20110;-77
2021/08/22 05:33:58;;;;;;;7.28;5.35;;;;;;;17.72;90.57;98123.47;5070710;28;20037;-78
2021/08/22 05:36:24;;;;;;;9.82;5.72;;;;;;;17.78;90.02;98133.19;5070587;28;20023;-77
2021/08/22 05:38:50;;;;;;;10.38;5.53;;;;;;;17.72;90.34;98124.28;5070166;28;20449;-76
2021/08/22 05:41:16;;;;;;;7.32;5.15;;;;;;;17.82;90.28;98134.94;5072367;28;20088;-77
2021/08/22 05:43:42;;;;;;;7.20;5.18;;;;;;;18.01;88.80;98132.47;5075858;28;20056;-78
2021/08/22 05:46:09;;;;;;;7.03;5.05;;;;;;;18.19;87.87;98136.72;5070862;28;20024;-77
2021/08/22 05:48:35;;;;;;;10.25;5.50;;;;;;;18.35;86.70;98122.25;5070302;28;20485;-78
2021/08/22 05:51:00;;;;;;;7.97;4.80;;;;;;;18.30;86.27;98122.44;5070146;28;20024;-77
2021/08/22 05:53:30;;;;;;;8.57;5.15;;;;;;;18.51;85.40;98120.47;5052011;28;20081;-77
2021/08/22 05:55:57;;;;;;;6.20;4.20;;;;;;;18.93;83.24;98121.09;5052424;28;20051;-77
2021/08/22 05:58:23;;;;;;;8.27;5.25;;;;;;;19.12;81.85;98121.34;5071610;28;20021;-77
2021/08/22 06:00:49;;;;;;;6.45;5.18;;;;;;;19.08;81.74;98112.06;5051997;28;20028;-76
2021/08/22 06:03:15;;;;;;;7.60;5.30;;;;;;;19.24;80.88;98118.53;5051859;28;20476;-76
2021/08/22 06:05:40;;;;;;;7.68;5.55;;;;;;;19.43;79.54;98120.75;5052813;28;20025;-77
2021/08/22 06:08:06;;;;;;;6.53;5.18;;;;;;;19.72;78.15;98117.69;5069976;28;20025;-78
2021/08/22 06:10:31;;;;;;;8.45;5.70;;;;;;;20.20;75.63;98128.63;5051957;28;20694;-76
2021/08/22 06:12:57;;;;;;;6.95;4.72;;;;;;;20.48;74.46;98127.84;5051917;28;20064;-76
2021/08/22 06:15:22;;;;;;;9.23;4.93;;;;;;;20.19;75.67;98121.47;5054449;28;20029;-78
2021/08/22 06:17:47;;;;;;;7.82;5.25;;;;;;;19.95;76.48;98115.22;5052245;28;20503;-77
2021/08/22 06:20:13;;;;;;;9.95;5.60;;;;;;;19.73;77.45;98109.00;5069875;28;20029;-78
2021/08/22 06:22:39;;;;;;;12.68;5.20;;;;;;;19.81;77.62;98120.31;5069389;28;20025;-79
2021/08/22 06:25:05;;;;;;;12.48;6.07;;;;;;;19.85;77.49;98112.91;5070065;28;20025;-78
2021/08/22 06:27:30;;;;;;;8.38;5.60;;;;;;;20.26;75.07;98120.91;5051340;28;20025;-79
2021/08/22 06:29:56;;;;;;;9.40;5.13;;;;;;;20.10;75.17;98118.03;5069736;28;20020;-76
2021/08/22 06:32:21;;;;;;;6.90;4.78;;;;;;;20.11;75.41;98119.63;5051792;28;20561;-78
2021/08/22 06:34:46;;;;;;;13.45;5.80;;;;;;;20.51;74.06;98127.94;5070159;28;20541;-74
2021/08/22 06:37:12;;;;;;;10.18;5.40;;;;;;;20.12;74.71;98121.25;5069840;28;20115;-74
2021/08/22 06:39:41;;;;;;;8.48;4.82;;;;;;;20.22;74.40;98106.88;5070128;28;20065;-74
2021/08/22 06:42:08;;;;;;;9.65;5.20;;;;;;;20.30;74.30;98119.00;5069760;28;20381;-75
2021/08/22 06:44:33;;;;;;;9.70;5.97;;;;;;;20.57;73.22;98114.59;5069600;28;20590;-75
2021/08/22 06:46:59;;;;;;;9.80;5.88;;;;;;;21.18;70.41;98117.75;5051582;28;20048;-75
2021/08/22 06:49:25;;;;;;;19.20;8.68;;;;;;;21.21;70.12;98111.47;5051453;28;20121;-76
2021/08/22 06:51:50;;;;;;;29.33;19.67;;;;;;;21.19;70.27;98102.69;5071468;28;20048;-76
2021/08/22 06:54:16;;;;;;;29.23;16.50;;;;;;;21.03;71.82;98119.34;5054836;28;20032;-76
2021/08/22 06:56:41;;;;;;;6.95;5.55;;;;;;;21.28;69.95;98120.00;5072995;28;20024;-75
2021/08/22 06:59:07;;;;;;;18.48;12.93;;;;;;;21.65;68.59;98121.25;5054722;28;20362;-76
2021/08/22 07:01:32;;;;;;;9.93;7.32;;;;;;;21.83;67.99;98124.44;5072985;28;20040;-75
2021/08/22 07:03:57;;;;;;;11.10;5.97;;;;;;;21.38;69.40;98122.22;5073066;28;20483;-75
2021/08/22 07:06:23;;;;;;;8.25;5.40;;;;;;;21.36;69.24;98119.78;5072975;28;20111;-74
2021/08/22 07:08:48;;;;;;;10.15;7.47;;;;;;;21.58;68.04;98118.28;5072659;28;20039;-75
2021/08/22 07:11:14;;;;;;;33.47;24.27;;;;;;;22.10;66.43;98122.66;5071421;28;20032;-74
2021/08/22 07:13:39;;;;;;;14.23;7.57;;;;;;;22.22;65.94;98122.50;5054694;28;20020;-74
2021/08/22 07:16:05;;;;;;;8.10;6.13;;;;;;;22.72;64.47;98118.72;5072696;28;20103;-73
2021/08/22 07:18:32;;;;;;;5.88;4.57;;;;;;;23.51;61.34;98108.50;5054535;28;20537;-82
2021/08/22 07:20:57;;;;;;;6.25;5.45;;;;;;;24.62;57.61;98125.53;5072791;28;20085;-77
2021/08/22 07:23:23;;;;;;;7.35;4.65;;;;;;;25.79;53.93;98122.53;5072641;28;20028;-78
2021/08/22 07:25:50;;;;;;;14.70;9.00;;;;;;;26.25;51.95;98127.63;5077243;28;20473;-77
2021/08/22 07:28:16;;;;;;;13.20;7.38;;;;;;;25.94;52.26;98123.41;5072880;28;20037;-76
2021/08/22 07:30:41;;;;;;;8.10;4.88;;;;;;;25.49;53.58;98119.97;5072769;28;20036;-78
2021/08/22 07:33:07;;;;;;;8.23;5.07;;;;;;;26.43;50.97;98126.50;5071957;28;20035;-78
2021/08/22 07:35:32;;;;;;;9.30;4.50;;;;;;;27.88;47.50;98123.00;5069652;28;20384;-78
2021/08/22 07:37:58;;;;;;;6.47;4.70;;;;;;;28.82;44.60;98121.00;5070996;28;20408;-79
2021/08/22 07:40:23;;;;;;;9.63;5.15;;;;;;;28.83;44.63;98128.25;5070766;28;20028;-77
2021/08/22 07:42:49;;;;;;;9.38;4.80;;;;;;;28.90;44.39;98118.97;5072265;28;20041;-80
2021/08/22 07:45:14;;;;;;;9.93;5.45;;;;;;;27.34;47.92;98122.25;5070079;28;20044;-78
2021/08/22 07:47:39;;;;;;;10.27;5.40;;;;;;;28.68;45.25;98132.38;5069728;28;20031;-77
2021/08/22 07:50:05;;;;;;;7.88;5.70;;;;;;;27.62;47.08;98124.25;5070018;28;20029;-80
2021/08/22 07:52:31;;;;;;;9.57;5.30;;;;;;;28.63;45.46;98127.16;5068605;28;20048;-78
2021/08/22 07:54:56;;;;;;;11.45;4.82;;;;;;;28.02;45.84;98120.94;5067880;28;20384;-79
2021/08/22 07:57:22;;;;;;;9.75;4.68;;;;;;;27.94;45.82;98112.94;5071985;28;20131;-79
2021/08/22 07:59:47;;;;;;;9.80;4.50;;;;;;;28.15;46.18;98112.91;5076670;28;20039;-76
2021/08/22 08:02:12;;;;;;;10.45;5.10;;;;;;;28.17;44.39;98107.66;5070886;28;20032;-77
2021/08/22 08:04:38;;;;;;;8.80;4.45;;;;;;;29.08;43.51;98119.63;5053027;28;20020;-79
2021/08/22 08:07:04;;;;;;;5.32;4.53;;;;;;;28.09;44.81;98111.72;5052541;28;20380;-77
2021/08/22 08:09:29;;;;;;;6.00;4.13;;;;;;;28.68;43.86;98109.84;5052400;28;20052;-78
2021/08/22 08:11:57;;;;;;;6.65;4.55;;;;;;;29.92;41.70;98106.03;5070130;28;20127;-77
2021/08/22 08:14:24;;;;;;;7.80;3.95;;;;;;;30.97;38.97;98117.22;5069917;28;20032;-77
2021/08/22 08:16:49;;;;;;;5.82;4.00;;;;;;;29.60;41.21;98104.31;5070864;28;20443;-77
2021/08/22 08:19:15;;;;;;;5.07;3.65;;;;;;;28.51;42.04;98105.88;5070925;28;20067;-78
2021/08/22 08:21:40;;;;;;;4.22;3.15;;;;;;;28.05;43.34;98108.09;5069988;28;20024;-79
2021/08/22 08:24:06;;;;;;;4.80;3.83;;;;;;;27.03;44.94;98111.81;5070769;28;20038;-78
2021/08/22 08:26:31;;;;;;;4.43;3.22;;;;;;;26.73;45.97;98105.69;5051871;28;20032;-80
2021/08/22 08:28:57;;;;;;;5.18;3.50;;;;;;;27.77;44.29;98102.53;5070132;28;20023;-79
2021/08/22 08:31:22;;;;;;;5.47;3.35;;;;;;;27.75;44.63;98104.97;5069753;28;20499;-77
2021/08/22 08:33:47;;;;;;;4.55;3.78;;;;;;;27.62;44.92;98098.94;5069987;28;20021;-78
2021/08/22 08:36:13;;;;;;;5.90;4.03;;;;;;;26.90;45.85;98113.41;5070350;28;20115;-80
2021/08/22 08:38:40;;;;;;;5.50;3.95;;;;;;;26.41;47.57;98106.44;5069648;28;20032;-80
2021/08/22 08:41:06;;;;;;;5.55;3.97;;;;;;;26.59;47.90;98103.69;5070092;28;20024;-78
2021/08/22 08:43:32;;;;;;;6.20;3.38;;;;;;;27.59;46.69;98117.44;5069605;28;20078;-76
2021/08/22 08:46:10;;;;;;;8.05;3.40;;;;;;;26.77;47.46;98117.75;5051875;28;20388;-78
2021/08/22 08:49:09;;;;;;;4.97;3.63;;;;;;;27.18;47.40;98110.59;5069274;28;20049;-79
2021/08/22 08:51:43;;;;;;;3.85;3.03;;;;;;;28.22;43.77;98109.25;5053359;28;20024;-78
2021/08/22 08:54:27;;;;;;;4.47;3.40;;;;;;;28.76;42.23;98110.63;5069328;28;20434;-78
2021/08/22 08:56:53;;;;;;;9.10;3.92;;;;;;;28.41;43.92;98106.72;5054239;28;20028;-78
2021/08/22 08:59:18;;;;;;;5.22;3.97;;;;;;;28.81;43.23;98108.16;5068895;28;20385;-77
2021/08/22 09:01:44;;;;;;;7.03;3.67;;;;;;;28.03;45.37;98102.06;5069307;28;20735;-78
2021/08/22 09:04:15;;;;;;;4.85;3.63;;;;;;;28.38;44.99;98098.34;5069335;28;20463;-77
2021/08/22 09:07:18;;;;;;;3.85;3.38;;;;;;;27.64;46.32;98097.34;5051257;28;20366;-78
2021/08/22 09:10:24;;;;;;;7.90;3.70;;;;;;;27.70;46.13;98091.28;5062997;28;20032;-78
2021/08/22 09:13:08;;;;;;;4.73;3.60;;;;;;;27.62;46.43;98082.91;5068984;28;20465;-79
2021/08/22 09:16:13;;;;;;;5.07;3.67;;;;;;;28.05;45.10;98085.59;5068961;28;20032;-79
2021/08/22 09:19:16;;;;;;;6.95;3.72;;;;;;;29.10;42.35;98086.22;5068626;28;20078;-73
2021/08/22 09:22:19;;;;;;;6.45;3.65;;;;;;;29.23;42.41;98079.66;5047501;28;20095;-74
2021/08/22 09:25:21;;;;;;;4.60;3.22;;;;;;;29.17;42.75;98091.78;5066303;28;20021;-73
2021/08/22 09:28:26;;;;;;;3.92;3.38;;;;;;;28.70;42.43;98088.50;5066132;28;20032;-73
2021/08/22 09:31:16;;;;;;;4.53;3.45;;;;;;;27.99;43.88;98085.19;5049495;28;20280;-74
2021/08/22 09:34:19;;;;;;;3.25;2.75;;;;;;;27.56;42.47;98084.50;5067351;28;20031;-72
2021/08/22 09:37:12;;;;;;;4.50;3.13;;;;;;;27.66;42.87;98080.84;5068353;28;20044;-75
2021/08/22 09:39:56;;;;;;;4.20;2.97;;;;;;;27.69;43.68;98073.66;5066623;28;20047;-73
2021/08/22 09:42:58;;;;;;;4.65;3.60;;;;;;;27.75;43.83;98069.22;5067215;28;20033;-74
2021/08/22 09:45:48;;;;;;;5.35;3.20;;;;;;;28.16;43.33;98069.50;5049033;28;20051;-76
2021/08/22 09:48:51;;;;;;;6.68;3.85;;;;;;;28.35;42.99;98068.19;5066820;28;20045;-74
2021/08/22 09:51:16;;;;;;;6.10;3.42;;;;;;;29.05;42.04;98066.91;5067367;28;20040;-75
2021/08/22 09:54:09;;;;;;;4.32;3.33;;;;;;;29.16;41.12;98064.84;5067729;28;20031;-73
2021/08/22 09:56:53;;;;;;;5.45;3.47;;;;;;;28.38;42.30;98062.50;5069752;28;20115;-75
2021/08/22 09:59:36;;;;;;;4.45;3.05;;;;;;;29.35;40.80;98055.84;5069005;28;20049;-73
2021/08/22 10:02:26;;;;;;;3.78;3.30;;;;;;;29.06;41.06;98052.44;5066494;28;20059;-74
2021/08/22 10:05:14;;;;;;;5.55;3.40;;;;;;;28.98;41.44;98039.59;5067768;28;20032;-74
2021/08/22 10:07:43;;;;;;;3.38;2.97;;;;;;;29.21;40.97;98050.28;5068783;28;20090;-72
2021/08/22 10:10:13;;;;;;;6.53;3.50;;;;;;;28.85;40.87;98041.31;5068970;28;20070;-72
2021/08/22 10:12:38;;;;;;;10.38;3.20;;;;;;;29.43;40.38;98040.44;5068651;28;20051;-75
2021/08/22 10:15:04;;;;;;;7.43;3.42;;;;;;;29.74;39.36;98044.13;5050600;28;20028;-75
2021/08/22 10:17:30;;;;;;;11.75;4.18;;;;;;;30.37;38.82;98039.72;5072893;28;20056;-74
2021/08/22 10:19:56;;;;;;;9.50;6.57;;;;;;;30.49;38.48;98042.00;5070341;28;20051;-74
2021/08/22 10:22:33;;;;;;;38.70;33.97;;;;;;;30.67;37.92;98038.91;5069115;28;20056;-74
2021/08/22 10:25:02;;;;;;;6.97;3.30;;;;;;;29.54;39.33;98024.19;5050639;28;20028;-74
2021/08/22 10:27:31;;;;;;;4.55;3.03;;;;;;;29.96;39.11;98037.03;5071886;28;20048;-73
2021/08/22 10:29:58;;;;;;;3.90;3.25;;;;;;;30.26;38.74;98039.09;5072543;28;20029;-74
2021/08/22 10:32:24;;;;;;;4.50;3.55;;;;;;;30.83;37.75;98029.78;5054416;28;20064;-74
2021/08/22 10:35:12;;;;;;;4.22;3.38;;;;;;;30.87;37.49;98036.19;5054102;28;20024;-74
2021/08/22 10:37:45;;;;;;;5.80;3.53;;;;;;;30.39;38.56;98026.00;5055217;28;20027;-77
2021/08/22 10:40:23;;;;;;;3.50;2.65;;;;;;;30.73;37.69;98029.53;5072287;28;20601;-77
2021/08/22 10:43:09;;;;;;;3.85;3.17;;;;;;;30.66;37.70;98021.19;5069648;28;20233;-73
2021/08/22 10:45:40;;;;;;;4.22;3.30;;;;;;;30.45;38.28;98018.66;5061473;28;20033;-75
2021/08/22 10:48:26;;;;;;;3.67;2.85;;;;;;;31.23;37.60;98018.22;5066630;28;20401;-73
2021/08/22 10:51:08;;;;;;;6.78;3.08;;;;;;;31.32;36.76;98009.19;5029285;28;20033;-74
2021/08/22 10:53:35;;;;;;;5.70;3.53;;;;;;;31.08;38.14;98004.75;5052753;28;20497;-72
2021/08/22 10:56:22;;;;;;;2.78;2.45;;;;;;;31.65;38.51;98004.53;5072097;28;20120;-78
2021/08/22 10:58:57;;;;;;;6.07;3.25;;;;;;;31.56;39.48;97996.63;5054084;28;20028;-77
2021/08/22 11:01:24;;;;;;;3.78;2.97;;;;;;;30.87;38.89;97999.44;5034352;28;20029;-78
2021/08/22 11:04:12;;;;;;;7.65;3.28;;;;;;;30.92;40.17;97990.50;5052124;28;20029;-77
2021/08/22 11:06:55;;;;;;;4.00;3.05;;;;;;;30.80;40.35;97984.22;5052407;28;20029;-77
2021/08/22 11:09:43;;;;;;;5.53;3.00;;;;;;;30.38;39.88;97976.41;5042465;28;20048;-76
2021/08/22 11:12:31;;;;;;;4.82;3.53;;;;;;;30.50;40.49;97975.81;5067711;28;20082;-80
2021/08/22 11:14:59;;;;;;;5.32;2.95;;;;;;;30.17;40.92;97974.66;5068049;28;20028;-77
2021/08/22 11:17:26;;;;;;;5.18;3.25;;;;;;;30.42;39.97;97979.97;5053179;28;20021;-80
2021/08/22 11:19:52;;;;;;;5.82;3.60;;;;;;;29.94;40.28;97960.50;5055525;28;20437;-84
2021/08/22 11:22:28;;;;;;;4.53;3.25;;;;;;;28.97;46.40;97955.50;5073808;28;20115;-83
2021/08/22 11:24:55;;;;;;;3.35;2.65;;;;;;;29.40;43.55;97955.88;5073038;28;20111;-85
2021/08/22 11:27:23;;;;;;;4.00;3.10;;;;;;;29.94;42.23;97959.69;5053679;28;20073;-82
2021/08/22 11:30:09;;;;;;;3.75;3.35;;;;;;;29.89;41.11;97962.97;5072450;28;20032;-81
2021/08/22 11:32:36;;;;;;;3.47;2.72;;;;;;;30.03;42.12;97957.13;5070272;28;20035;-83
2021/08/22 11:35:12;;;;;;;4.63;4.03;;;;;;;30.39;41.84;97958.22;5073254;28;20030;-80
2021/08/22 11:37:38;;;;;;;4.05;2.97;;;;;;;30.46;40.89;97948.84;5069778;28;20020;-82
2021/08/22 11:40:12;;;;;;;3.17;2.50;;;;;;;30.59;40.83;97949.88;5071289;28;20111;-78
2021/08/22 11:42:38;;;;;;;5.35;3.35;;;;;;;30.67;41.01;97954.97;5042579;28;20112;-81